Main page
METAR-TAF:

METAR-TAF

Airports :

Alta Airport

Alta, Norway

latitude: 69-59N, longitude: 023-22E, elevation: 0 m

Current weather observation

The report was made 23 minutes ago, at 09:50 UTC
Wind 8 kt from the Northwest
Temperature 4°C
Humidity 65%
Pressure 1023 hPa
Visibility 10 km or more
Scattered clouds at a height of 2500 ft
Broken clouds at a height of 4100 ft

METAR: ENAT 220950Z 32008KT 9999 SCT025 BKN041 04/M02 Q1023 RMK WIND 700FT 32010KT

Time: 12:13 (10:13 UTC)

Forecast

The report was made 2 hours and 13 minutes ago, at 08:00 UTC
Forecast valid from 22 at 09 UTC to 22 at 18 UTC
Wind 8 kt from the Northeast
Visibility 10 km or more
Broken clouds at a height of 3000 ft

TAF: ENAT 220800Z 2209/2218 04008KT 9999 BKN030

Weather observations and forecasts of more than 4000 airports (METAR and TAF reports).

The available stations are represented by yellow and red dots on the map.

Hover mouse over dot to see the name of the station.

Then click to see weather observations and forecasts.

To change the map : click on the green buttons with a black cross to zoom in, on the green button with a dash to zoom out, or on the green arrows for adjacent maps.


METAR-TAF: